Carlsbad Caverns National Park, NM

1:23 PM MDT on July 24, 2014 (GMT -0600)
KNMCARLS3 Elev 3158 ft | 32.43 °N, 104.25 °W | Change Station

Current weather conditions updated 7 minutes ago

Clear
Clear
95.5 °F
Feels Like 96 °F
N
0.0
Wind Variable Wind from ENE
Gusts 2.0 mph

Today is forecast to be nearly the same temperature as yesterday.

Today
High -- | Low -- °F
--% Chance of Precip.
Yesterday
High -- | Low -- °F
Precip. -- in
6:06 AM 8:00 PM
Waning Crescent, 4% visible
Pressure 29.94 in
Visibility 10.0 miles
Clouds Clear
Heat Index 96 °F
Dew Point 60 °F
Humidity 31%
Rainfall 0.00 in
Snow Depth Not available.
UV 13 out of 12
Pollen 4.70 out of 12
Air Quality Not available.
Flu Activity Not available.
METAR KCNM 241853Z AUTO 07008KT 10SM CLR 36/11 A3013 RMK AO2 SLP136 T03560106 $

More Conditions Fewer Conditions

Pressure 29.94 in
Visibility 10.0 miles
Clouds Clear
Heat Index 96 °F
Dew Point 60 °F
Humidity 31%
Rainfall 0.00 in
Snow Depth Not available.
UV 13 out of 12
Pollen 4.70 out of 12
Air Quality Not available.
Flu Activity Not available.
METAR KCNM 241853Z AUTO 07008KT 10SM CLR 36/11 A3013 RMK AO2 SLP136 T03560106 $

More Conditions Fewer Conditions

10-Day Weather Forecast

Almanac

Astronomy

Jul. 24, 2014 Rise Set
Actual Time 6:06 AM MDT 8:00 PM MDT
Civil Twilight 5:39 AM MDT 8:27 PM MDT
Nautical Twilight 5:05 AM MDT 9:00 PM MDT
Astronomical Twilight 4:30 AM MDT 9:35 PM MDT
Moon 4:15 AM MDT 6:18 PM MDT
Length of Visible Light 14h 48m
Length of Day
13h 54m
Tomorrow will be 1m 17s shorter.
Waning Crescent, 4% of the Moon is Illuminated
Today
Waning Crescent
Jul 26
New
Aug 3
First Quarter
Aug 10
Full
Aug 17
Last Quarter

Today's Extremes

State Highs State Lows

Community

WunderPhotos

Upload Photos

1,737,094 photos uploaded!

Nearby

Snow Depth

Station Depth Elevation
Sierra Blanca 1 in 10280 ft
Wesner Springs 0 in 11120 ft
Santa Fe 1 in 11445 ft
Elk Cabin 144 in 8210 ft
Silver Creek Divide 2 in 9000 ft

Earthquake Activity

City Distance Mag. Time & Date
No recent earthquake activity has been reported nearby.
Minimum magnitude displayed is 2.5.

Coastal Water Temperatures

Place Temperature
No Stations Reporting

Nearby Weather Stations

Station Location Temp. Heat Index Dew Point Humidity Wind Precip. Elev Updated Type
Carlsbad, NM 95.5 °F 96 °F 60 °F 31% ENE  at  0.0 mph 0.00 in / hr 3158 ft 1:16 PM MDT Normal
Ridgecrest Subdivision, Carlsbad, NM 92.0 °F 89 °F 48 °F 22% ESE  at  14.0 mph 0.00 in / hr 3200 ft 1:23 PM MDT Rapid Fire
RAWS BATDRAW NM, Whites City, NM 90 °F 87 °F 51 °F 27% East  at  7 mph 0.00 in / hr 4424 ft 11:52 AM MDT MADIS

Show More Stations Show Fewer Stations